EGGW Airport Information

Runway Information
Runway 08 Length 7086 ft width 151 ft
Elevation 515 ft Threshold 0 ft Heading 74
Runway 26 Length 7086 ft Width 151 ft
Elevation 508 ft Threshold 279 ft Heading 254
Airport Frequencies
Type APP Name APP Frequency 129.55 MHZ
Type ATIS Name ATIS Frequency 120.575 MHZ
Type GND Name GND Frequency 121.75 MHZ
Type TWR Name TWR Frequency 132.55 MHZ
Airport Navaids
Airport Weather Information & NOTAM
ADDS - METARS form results

(1813 UTC 24 May 2022)
Data provider http://aviationweather.gov/metar/data/
 
METAR text: EGGW 241750Z AUTO 33009KT 290V350 9999 NCD 13/06 Q1008
Conditions at: EGGW (LUTON AIRPORT , GB) observed 1750 UTC 24 May 2022
Temperature: 13.0°C (55°F)
Dewpoint: 6.0°C (43°F) [RH = 62%]
Pressure (altimeter): 29.76 inches Hg (1008.0 mb)
Winds: from the NNW (330 degrees) at 10 MPH (9 knots; 4.6 m/s)
Visibility: 6 or more miles (10+ km)
Ceiling: at least 12,000 feet AGL
Clouds: sky clear below 12,000 feet AGL
Weather: no significant weather observed at this time

METAR text: EGGW 241720Z AUTO 29008KT 250V310 9999 NCD 14/06 Q1008
Conditions at: EGGW (LUTON AIRPORT , GB) observed 1720 UTC 24 May 2022
Temperature: 14.0°C (57°F)
Dewpoint: 6.0°C (43°F) [RH = 58%]
Pressure (altimeter): 29.76 inches Hg (1008.0 mb)
Winds: from the WNW (290 degrees) at 9 MPH (8 knots; 4.1 m/s)
Visibility: 6 or more miles (10+ km)
Ceiling: at least 12,000 feet AGL
Clouds: sky clear below 12,000 feet AGL
Weather: no significant weather observed at this time

Forecast for: EGGW (LUTON AIRPORT , GB)
Text: TAF EGGW 241659Z 2418/2518 23008KT 9999 SCT030
Forecast period: 1800 UTC 24 May 2022 to 1800 UTC 25 May 2022
Forecast type: FROM: standard forecast or significant change
Winds: from the SW (230 degrees) at 9 MPH (8 knots; 4.1 m/s)
Visibility: 6 or more miles (10+ km)
Ceiling: at least 12,000 feet AGL
Clouds: scattered clouds at 3000 feet AGL
Weather: no significant weather forecast for this period
Text: PROB40
Forecast period: 1000 to 1600 UTC 25 May 2022
Forecast type: TEMPORARY: The following changes expected for less than half the time period
Winds: from the SW (220 degrees) at 17 MPH (15 knots; 7.7 m/s)
gusting to 29 MPH (25 knots; 12.9 m/s)
Visibility: 5 miles (8 km)
Ceiling: 1200 feet AGL
Clouds: broken clouds at 1200 feet AGL
Weather: -RA  (light rain)